UAL2605 KORD-KATL
Flight info
| Callsign | UAL2605 |
|---|---|
| Flight time | N/A |
| Altitude | 38000 |
| Route | DCT CMSKY DCT CARYN DCT CYBIL DCT PXV/N0470F370 DCT HITMN DCT NEWBB DCT IHAVE DCT MTHEW CHPPR1 |
| Aircraft | B789/H-SDE1E2E3FGHIJ2J3J4J5M1RWXY/LB1D1 |
Departure
| Time | 2026-05-05 15:26 |
|---|---|
| Airport | Chicago O'Hare International Airport (KORD) |
Arrival
| Time | N/A |
|---|---|
| Airport | Hartsfield Jackson Atlanta International Airport (KATL) |
| Time | Latitude | Longitude | Altitude | Speed | Heading |
|---|---|---|---|---|---|
| 2026-05-05 15:24 | 41.97197 | -87.88364 | 676 ft | 36 kts | 90° |
| 2026-05-05 15:24 | 41.97198 | -87.88125 | 676 ft | 13 kts | 89° |
| 2026-05-05 15:25 | 41.97171 | -87.88051 | 676 ft | 7 kts | 154° |
| 2026-05-05 15:25 | 41.97121 | -87.88033 | 675 ft | 7 kts | 176° |
| 2026-05-05 15:25 | 41.97062 | -87.88032 | 675 ft | 12 kts | 179° |
| 2026-05-05 15:25 | 41.96951 | -87.88046 | 676 ft | 20 kts | 202° |
| 2026-05-05 15:26 | 41.96758 | -87.88253 | 674 ft | 64 kts | 221° |
| 2026-05-05 15:26 | 41.96233 | -87.88883 | 674 ft | 137 kts | 220° |
| 2026-05-05 15:26 | 41.95408 | -87.89792 | 1097 ft | 152 kts | 220° |
| 2026-05-05 15:26 | 41.94474 | -87.90589 | 1704 ft | 168 kts | 210° |
| 2026-05-05 15:27 | 41.93281 | -87.90635 | 2373 ft | 180 kts | 167° |
| 2026-05-05 15:27 | 41.91982 | -87.90324 | 2887 ft | 203 kts | 180° |
| 2026-05-05 15:27 | 41.90489 | -87.90372 | 3437 ft | 226 kts | 184° |
| 2026-05-05 15:27 | 41.88831 | -87.90360 | 3989 ft | 250 kts | 180° |
| 2026-05-05 15:28 | 41.87072 | -87.90247 | 4738 ft | 261 kts | 179° |
| 2026-05-05 15:28 | 41.85200 | -87.90120 | 5010 ft | 273 kts | 180° |
| 2026-05-05 15:28 | 41.83344 | -87.90015 | 5785 ft | 263 kts | 182° |
| 2026-05-05 15:28 | 41.81538 | -87.89919 | 7052 ft | 260 kts | 184° |
| 2026-05-05 15:29 | 41.79659 | -87.89827 | 7825 ft | 275 kts | 184° |
| 2026-05-05 15:29 | 41.77762 | -87.89715 | 9131 ft | 271 kts | 186° |
| 2026-05-05 15:29 | 41.75877 | -87.89609 | 10269 ft | 273 kts | 187° |
| 2026-05-05 15:29 | 41.73886 | -87.89518 | 10669 ft | 300 kts | 186° |
| 2026-05-05 15:30 | 41.71699 | -87.89408 | 11029 ft | 328 kts | 185° |
| 2026-05-05 15:30 | 41.69393 | -87.89265 | 11850 ft | 335 kts | 185° |
| 2026-05-05 15:30 | 41.67032 | -87.89120 | 12783 ft | 342 kts | 186° |
| 2026-05-05 15:30 | 41.64652 | -87.88996 | 13699 ft | 348 kts | 186° |
| 2026-05-05 15:31 | 41.62213 | -87.88869 | 14525 ft | 353 kts | 186° |
| 2026-05-05 15:31 | 41.59746 | -87.88732 | 15404 ft | 357 kts | 186° |
| 2026-05-05 15:31 | 41.57242 | -87.88592 | 16267 ft | 361 kts | 186° |
| 2026-05-05 15:31 | 41.54717 | -87.88454 | 17087 ft | 366 kts | 186° |
| 2026-05-05 15:32 | 41.52168 | -87.88317 | 18008 ft | 366 kts | 185° |
| 2026-05-05 15:32 | 41.49636 | -87.88177 | 18714 ft | 371 kts | 186° |
| 2026-05-05 15:32 | 41.47041 | -87.88037 | 19367 ft | 376 kts | 186° |
| 2026-05-05 15:32 | 41.44665 | -87.87909 | 19956 ft | 380 kts | 186° |
| 2026-05-05 15:33 | 41.42010 | -87.87765 | 20587 ft | 384 kts | 187° |
| 2026-05-05 15:33 | 41.39355 | -87.87924 | 21156 ft | 382 kts | 193° |
| 2026-05-05 15:33 | 41.36685 | -87.88180 | 21764 ft | 387 kts | 192° |
| 2026-05-05 15:33 | 41.33975 | -87.88406 | 22361 ft | 392 kts | 193° |
| 2026-05-05 15:34 | 41.31237 | -87.88658 | 22928 ft | 395 kts | 193° |
| 2026-05-05 15:34 | 41.28483 | -87.88926 | 23500 ft | 399 kts | 193° |